createdAt,value
2016-05-24T00:00:06.963Z,0
2016-05-24T00:01:06.888Z,0
2016-05-24T00:02:07.238Z,0
2016-05-24T00:03:06.847Z,0
2016-05-24T00:04:06.803Z,0
2016-05-24T00:05:06.759Z,0
2016-05-24T00:06:06.729Z,0
2016-05-24T00:07:06.686Z,0
2016-05-24T00:08:06.641Z,0
2016-05-24T00:09:06.628Z,0
2016-05-24T00:10:06.584Z,0
2016-05-24T00:11:06.384Z,0
2016-05-24T00:12:06.511Z,0
2016-05-24T00:13:06.498Z,0
2016-05-24T00:14:06.298Z,0
2016-05-24T00:15:06.707Z,0
2016-05-24T00:16:06.381Z,0
2016-05-24T00:17:06.322Z,0
2016-05-24T00:18:06.309Z,0
2016-05-24T00:19:06.343Z,0
2016-05-24T00:20:06.080Z,0
2016-05-24T00:21:06.192Z,0
2016-05-24T00:22:06.008Z,0
2016-05-24T00:23:06.150Z,0
2016-05-24T00:24:05.966Z,0
2016-05-24T00:25:06.280Z,0
2016-05-24T00:26:06.018Z,0
2016-05-24T00:27:05.864Z,0
2016-05-24T00:28:05.961Z,0
2016-05-24T00:29:05.916Z,0
2016-05-24T00:30:05.873Z,0
2016-05-24T00:31:05.875Z,0
2016-05-24T00:32:05.691Z,0
2016-05-24T00:33:05.787Z,0
2016-05-24T00:34:05.602Z,0
2016-05-24T00:35:05.714Z,0
2016-05-24T00:36:05.357Z,0
2016-05-24T00:37:05.656Z,0
2016-05-24T00:38:05.597Z,0
2016-05-24T00:39:05.584Z,0
2016-05-24T00:40:05.556Z,0
2016-05-24T00:41:05.512Z,0
2016-05-24T00:42:05.483Z,0
2016-05-24T00:43:05.501Z,0
2016-05-24T00:44:05.425Z,0
2016-05-24T00:45:05.084Z,0
2016-05-24T00:46:05.025Z,0
2016-05-24T00:47:05.309Z,0
2016-05-24T00:48:05.280Z,0
2016-05-24T00:49:05.080Z,0
2016-05-24T00:50:05.208Z,0
2016-05-24T00:51:05.008Z,0
2016-05-24T00:52:05.135Z,0
2016-05-24T00:53:05.122Z,0
2016-05-24T00:54:05.062Z,0
2016-05-24T00:55:05.049Z,0
2016-05-24T00:56:05.021Z,0
2016-05-24T00:57:04.946Z,0
2016-05-24T00:58:04.932Z,0
2016-05-24T00:59:04.888Z,0
2016-05-24T01:00:04.968Z,0
2016-05-24T01:01:04.701Z,0
2016-05-24T01:02:04.716Z,0
2016-05-24T01:03:04.825Z,0
2016-05-24T01:04:04.811Z,0
2016-05-24T01:05:04.700Z,0
2016-05-24T01:06:04.646Z,0
2016-05-24T01:07:04.768Z,0
2016-05-24T01:08:04.765Z,0
2016-05-24T01:09:04.560Z,0
2016-05-24T01:10:04.713Z,0
2016-05-24T01:11:04.364Z,0
2016-05-24T01:12:04.636Z,0
2016-05-24T01:13:04.611Z,0
2016-05-24T01:14:04.571Z,0
2016-05-24T01:15:04.562Z,0
2016-05-24T01:16:04.365Z,0
2016-05-24T01:17:04.477Z,0
2016-05-24T01:18:04.450Z,0
2016-05-24T01:19:04.407Z,0
2016-05-24T01:20:04.223Z,0
2016-05-24T01:21:04.180Z,0
2016-05-24T01:22:04.309Z,0
2016-05-24T01:23:04.295Z,0
2016-05-24T01:24:04.237Z,0
2016-05-24T01:25:04.207Z,0
2016-05-24T01:26:04.227Z,0
2016-05-24T01:27:04.135Z,0
2016-05-24T01:28:03.952Z,0
2016-05-24T01:29:04.063Z,0
2016-05-24T01:30:04.301Z,0
2016-05-24T01:31:04.053Z,0
2016-05-24T01:32:03.807Z,0
2016-05-24T01:33:03.935Z,0
2016-05-24T01:34:03.891Z,0
2016-05-24T01:35:03.861Z,0
2016-05-24T01:36:03.833Z,0
2016-05-24T01:37:03.476Z,0
2016-05-24T01:38:03.761Z,0
2016-05-24T01:39:03.717Z,0
2016-05-24T01:40:03.688Z,0
2016-05-24T01:41:03.644Z,0
2016-05-24T01:42:03.615Z,0
2016-05-24T01:43:03.665Z,0
2016-05-24T01:44:03.604Z,0
2016-05-24T01:45:04.124Z,0
2016-05-24T01:46:03.485Z,0
2016-05-24T01:47:03.457Z,0
2016-05-24T01:48:03.271Z,0
2016-05-24T01:49:03.384Z,0
2016-05-24T01:50:03.355Z,0
2016-05-24T01:51:03.327Z,0
2016-05-24T01:52:03.267Z,0
2016-05-24T01:53:03.192Z,0
2016-05-24T01:54:03.225Z,0
2016-05-24T01:55:03.181Z,0
2016-05-24T01:56:02.981Z,0
2016-05-24T01:57:03.109Z,0
2016-05-24T01:58:03.080Z,0
2016-05-24T01:59:03.036Z,0
2016-05-24T02:00:02.711Z,0
2016-05-24T02:01:02.995Z,0
2016-05-24T02:02:02.934Z,0
2016-05-24T02:03:02.969Z,0
2016-05-24T02:04:02.861Z,0
2016-05-24T02:05:02.833Z,0
2016-05-24T02:06:02.647Z,0
2016-05-24T02:07:02.620Z,0
2016-05-24T02:08:02.561Z,0
2016-05-24T02:09:02.688Z,0
2016-05-24T02:10:02.658Z,0
2016-05-24T02:11:02.474Z,0
2016-05-24T02:12:02.586Z,0
2016-05-24T02:13:02.558Z,0
2016-05-24T02:14:02.358Z,0
2016-05-24T02:15:03.141Z,0
2016-05-24T02:16:02.472Z,0
2016-05-24T02:17:02.412Z,0
2016-05-24T02:18:02.212Z,0
2016-05-24T02:19:02.355Z,0
2016-05-24T02:20:02.310Z,0
2016-05-24T02:21:02.127Z,0
2016-05-24T02:22:02.238Z,0
2016-05-24T02:23:02.115Z,0
2016-05-24T02:24:01.915Z,0
2016-05-24T02:25:01.996Z,0
2016-05-24T02:26:02.124Z,0
2016-05-24T02:27:02.064Z,0
2016-05-24T02:28:01.879Z,0
2016-05-24T02:29:01.992Z,0
2016-05-24T02:30:01.963Z,0
2016-05-24T02:31:01.919Z,0
2016-05-24T02:32:01.750Z,0
2016-05-24T02:33:01.814Z,0
2016-05-24T02:34:01.817Z,0
2016-05-24T02:35:01.788Z,0
2016-05-24T02:36:01.776Z,0
2016-05-24T02:37:01.575Z,0
2016-05-24T02:38:01.688Z,0
2016-05-24T02:39:01.690Z,0
2016-05-24T02:40:01.614Z,0
2016-05-24T02:41:01.586Z,0
2016-05-24T02:42:01.542Z,0
2016-05-24T02:43:01.639Z,0
2016-05-24T02:44:01.500Z,0
2016-05-24T02:45:01.737Z,0
2016-05-24T02:46:01.599Z,0
2016-05-24T02:47:01.383Z,0
2016-05-24T02:48:01.449Z,0
2016-05-24T02:49:01.218Z,0
2016-05-24T02:50:01.345Z,0
2016-05-24T02:51:01.082Z,0
2016-05-24T02:52:01.443Z,0
2016-05-24T02:53:01.509Z,0
2016-05-24T02:54:01.199Z,0
2016-05-24T02:55:00.796Z,0
2016-05-24T02:56:00.923Z,0
2016-05-24T02:57:01.035Z,0
2016-05-24T02:58:01.007Z,0
2016-05-24T02:59:00.698Z,0
2016-05-24T03:00:01.137Z,0
2016-05-24T03:01:00.906Z,0
2016-05-24T03:02:00.861Z,0
2016-05-24T03:03:00.926Z,0
2016-05-24T03:04:00.804Z,0
2016-05-24T03:05:00.761Z,0
2016-05-24T03:06:00.575Z,0
2016-05-24T03:07:00.703Z,0
2016-05-24T03:08:00.659Z,0
2016-05-24T03:09:00.630Z,0
2016-05-24T03:10:00.602Z,0
2016-05-24T03:11:00.573Z,0
2016-05-24T03:12:00.513Z,0
2016-05-24T03:13:00.563Z,0
2016-05-24T03:14:00.455Z,0
2016-05-24T03:15:00.443Z,0
2016-05-24T03:16:00.415Z,0
2016-05-24T03:17:00.199Z,0
2016-05-24T03:18:00.327Z,0
2016-05-24T03:19:00.298Z,0
2016-05-24T03:20:00.081Z,0
2016-05-24T03:21:00.209Z,0
2016-05-24T03:22:00.181Z,0
2016-05-24T03:23:00.293Z,0
2016-05-24T03:23:59.952Z,0
2016-05-24T03:25:00.064Z,0
2016-05-24T03:26:00.098Z,0
2016-05-24T03:27:00.007Z,0
2016-05-24T03:27:59.962Z,0
2016-05-24T03:28:59.934Z,0
2016-05-24T03:29:59.906Z,0
2016-05-24T03:30:59.861Z,0
2016-05-24T03:31:59.833Z,0
2016-05-24T03:32:59.632Z,0
2016-05-24T03:33:59.619Z,0
2016-05-24T03:34:59.606Z,0
2016-05-24T03:35:59.703Z,0
2016-05-24T03:36:59.658Z,0
2016-05-24T03:37:59.646Z,0
2016-05-24T03:38:59.570Z,0
2016-05-24T03:39:59.558Z,0
2016-05-24T03:40:59.419Z,0
2016-05-24T03:41:59.485Z,0
2016-05-24T03:42:59.643Z,0
2016-05-24T03:43:59.428Z,0
2016-05-24T03:44:59.836Z,0
2016-05-24T03:45:59.371Z,0
2016-05-24T03:46:59.201Z,0
2016-05-24T03:47:59.266Z,0
2016-05-24T03:48:59.253Z,0
2016-05-24T03:49:59.053Z,0
2016-05-24T03:50:59.180Z,0
2016-05-24T03:51:59.137Z,0
2016-05-24T03:52:59.123Z,0
2016-05-24T03:53:59.080Z,0
2016-05-24T03:54:58.910Z,0
2016-05-24T03:55:58.866Z,0
2016-05-24T03:56:58.806Z,0
2016-05-24T03:57:58.762Z,0
2016-05-24T03:58:58.906Z,0
2016-05-24T03:59:59.423Z,0
2016-05-24T04:00:58.832Z,0
2016-05-24T04:01:58.789Z,0
2016-05-24T04:02:58.869Z,0
2016-05-24T04:03:58.731Z,0
2016-05-24T04:04:58.703Z,0
2016-05-24T04:05:58.659Z,0
2016-05-24T04:06:58.677Z,0
2016-05-24T04:07:58.586Z,0
2016-05-24T04:08:58.572Z,0
2016-05-24T04:09:58.513Z,0
2016-05-24T04:10:58.188Z,0
2016-05-24T04:11:58.441Z,0
2016-05-24T04:12:58.583Z,0
2016-05-24T04:13:58.399Z,0
2016-05-24T04:14:58.823Z,5
2016-05-24T04:15:58.310Z,5
2016-05-24T04:16:58.189Z,5
2016-05-24T04:17:58.253Z,5
2016-05-24T04:18:58.288Z,5
2016-05-24T04:19:58.180Z,5
2016-05-24T04:20:57.995Z,5
2016-05-24T04:21:57.952Z,5
2016-05-24T04:22:58.313Z,10
2016-05-24T04:23:58.051Z,10
2016-05-24T04:24:58.022Z,10
2016-05-24T04:25:57.978Z,10
2016-05-24T04:26:57.996Z,15
2016-05-24T04:27:57.904Z,15
2016-05-24T04:28:57.862Z,10
2016-05-24T04:29:58.254Z,10
2016-05-24T04:30:58.288Z,15
2016-05-24T04:31:57.790Z,15
2016-05-24T04:32:57.653Z,15
2016-05-24T04:33:57.687Z,15
2016-05-24T04:34:57.518Z,20
2016-05-24T04:35:57.630Z,25
2016-05-24T04:36:57.601Z,25
2016-05-24T04:37:57.619Z,25
2016-05-24T04:38:57.559Z,25
2016-05-24T04:39:57.328Z,25
2016-05-24T04:40:57.315Z,25
2016-05-24T04:41:57.286Z,30
2016-05-24T04:42:57.414Z,25
2016-05-24T04:43:57.197Z,30
2016-05-24T04:44:57.233Z,30
2016-05-24T04:45:57.141Z,25
2016-05-24T04:46:57.113Z,20
2016-05-24T04:47:57.224Z,20
2016-05-24T04:48:57.180Z,25
2016-05-24T04:49:56.995Z,25
2016-05-24T04:50:57.124Z,20
2016-05-24T04:51:57.080Z,15
2016-05-24T04:52:56.785Z,15
2016-05-24T04:53:57.021Z,15
2016-05-24T04:54:56.977Z,15
2016-05-24T04:55:56.965Z,15
2016-05-24T04:56:56.905Z,10
2016-05-24T04:57:56.877Z,10
2016-05-24T04:58:56.848Z,10
2016-05-24T04:59:56.897Z,10
2016-05-24T05:00:56.807Z,15
2016-05-24T05:01:56.731Z,15
2016-05-24T05:02:56.390Z,15
2016-05-24T05:03:56.721Z,20
2016-05-24T05:04:56.645Z,20
2016-05-24T05:05:56.601Z,25
2016-05-24T05:06:56.556Z,30
2016-05-24T05:07:56.372Z,35
2016-05-24T05:08:56.515Z,40
2016-05-24T05:09:56.159Z,40
2016-05-24T05:10:56.442Z,45
2016-05-24T05:11:56.398Z,45
2016-05-24T05:12:56.386Z,55
2016-05-24T05:13:56.326Z,65
2016-05-24T05:14:56.625Z,45
2016-05-24T05:15:56.128Z,45
2016-05-24T05:16:56.224Z,50
2016-05-24T05:17:56.211Z,50
2016-05-24T05:18:56.167Z,55
2016-05-24T05:19:55.983Z,55
2016-05-24T05:20:56.110Z,55
2016-05-24T05:21:55.894Z,50
2016-05-24T05:22:55.882Z,45
2016-05-24T05:23:56.010Z,45
2016-05-24T05:24:55.948Z,45
2016-05-24T05:25:55.624Z,50
2016-05-24T05:26:55.893Z,55
2016-05-24T05:27:55.848Z,55
2016-05-24T05:28:55.818Z,50
2016-05-24T05:29:56.462Z,45
2016-05-24T05:30:55.449Z,50
2016-05-24T05:31:55.718Z,45
2016-05-24T05:32:55.517Z,50
2016-05-24T05:33:55.662Z,45
2016-05-24T05:34:55.507Z,45
2016-05-24T05:35:55.572Z,50
2016-05-24T05:36:55.576Z,45
2016-05-24T05:37:55.203Z,50
2016-05-24T05:38:55.486Z,55
2016-05-24T05:39:55.458Z,55
2016-05-24T05:40:55.258Z,45
2016-05-24T05:41:55.229Z,45
2016-05-24T05:42:55.356Z,50
2016-05-24T05:43:55.328Z,50
2016-05-24T05:44:55.284Z,55
2016-05-24T05:45:55.099Z,55
2016-05-24T05:46:55.055Z,50
2016-05-24T05:47:55.026Z,50
2016-05-24T05:48:55.044Z,50
2016-05-24T05:49:54.955Z,50
2016-05-24T05:50:55.097Z,45
2016-05-24T05:51:55.053Z,40
2016-05-24T05:52:55.008Z,35
2016-05-24T05:53:54.980Z,35
2016-05-24T05:54:55.045Z,35
2016-05-24T05:55:54.923Z,35
2016-05-24T05:56:54.910Z,40
2016-05-24T05:57:54.851Z,45
2016-05-24T05:58:54.806Z,45
2016-05-24T05:59:54.793Z,45
2016-05-24T06:00:54.437Z,45
2016-05-24T06:01:54.532Z,50
2016-05-24T06:02:54.676Z,50
2016-05-24T06:03:54.475Z,50
2016-05-24T06:04:54.604Z,50
2016-05-24T06:05:54.668Z,65
2016-05-24T06:06:54.531Z,75
2016-05-24T06:07:54.173Z,80
2016-05-24T06:08:54.489Z,85
2016-05-24T06:09:54.288Z,80
2016-05-24T06:10:56.353Z,80
2016-05-24T06:11:54.842Z,85
2016-05-24T06:12:59.266Z,85
2016-05-24T06:14:00.486Z,80
2016-05-24T06:14:55.240Z,70
2016-05-24T06:15:58.524Z,70
2016-05-24T06:16:58.182Z,80
2016-05-24T06:17:54.950Z,75
2016-05-24T06:18:54.141Z,80
2016-05-24T06:19:54.097Z,85
2016-05-24T06:20:54.069Z,90
2016-05-24T06:21:53.868Z,95
2016-05-24T06:22:53.996Z,90
2016-05-24T06:23:53.795Z,90
2016-05-24T06:24:53.923Z,85
2016-05-24T06:25:53.910Z,80
2016-05-24T06:26:53.710Z,85
2016-05-24T06:27:53.837Z,85
2016-05-24T06:28:53.824Z,85
2016-05-24T06:29:53.780Z,95
2016-05-24T06:30:53.595Z,100
2016-05-24T06:31:53.707Z,110
2016-05-24T06:32:53.648Z,115
2016-05-24T06:33:53.619Z,115
2016-05-24T06:34:53.450Z,115
2016-05-24T06:35:53.562Z,110
2016-05-24T06:36:53.534Z,125
2016-05-24T06:37:53.504Z,120
2016-05-24T06:38:53.304Z,105
2016-05-24T06:39:53.432Z,115
2016-05-24T06:40:53.404Z,115
2016-05-24T06:41:53.203Z,115
2016-05-24T06:42:53.174Z,115
2016-05-24T06:43:53.349Z,130
2016-05-24T06:44:53.883Z,145
2016-05-24T06:45:53.355Z,145
2016-05-24T06:46:53.279Z,140
2016-05-24T06:47:53.500Z,135
2016-05-24T06:48:53.128Z,125
2016-05-24T06:49:53.116Z,145
2016-05-24T06:50:52.775Z,130
2016-05-24T06:51:53.058Z,115
2016-05-24T06:52:53.014Z,120
2016-05-24T06:53:52.969Z,120
2016-05-24T06:54:52.972Z,120
2016-05-24T06:55:52.928Z,95
2016-05-24T06:56:52.884Z,115
2016-05-24T06:57:52.855Z,135
2016-05-24T06:58:52.796Z,110
2016-05-24T06:59:52.955Z,105
2016-05-24T07:00:53.114Z,105
2016-05-24T07:01:52.726Z,90
2016-05-24T07:02:52.666Z,90
2016-05-24T07:03:52.496Z,105
2016-05-24T07:04:52.609Z,105
2016-05-24T07:05:52.284Z,130
2016-05-24T07:06:52.645Z,125
2016-05-24T07:07:52.539Z,100
2016-05-24T07:08:52.479Z,100
2016-05-24T07:09:52.435Z,115
2016-05-24T07:10:52.406Z,110
2016-05-24T07:11:52.378Z,130
2016-05-24T07:12:52.365Z,130
2016-05-24T07:13:51.993Z,125
2016-05-24T07:14:52.292Z,120
2016-05-24T07:15:52.325Z,110
2016-05-24T07:16:52.219Z,125
2016-05-24T07:17:52.191Z,115
2016-05-24T07:18:52.208Z,105
2016-05-24T07:19:51.977Z,110
2016-05-24T07:20:52.105Z,130
2016-05-24T07:21:52.092Z,160
2016-05-24T07:22:52.141Z,185
2016-05-24T07:23:51.691Z,175
2016-05-24T07:24:51.960Z,155
2016-05-24T07:25:52.041Z,165
2016-05-24T07:26:51.730Z,150
2016-05-24T07:27:51.905Z,140
2016-05-24T07:28:51.830Z,160
2016-05-24T07:29:51.738Z,160
2016-05-24T07:30:52.632Z,170
2016-05-24T07:31:51.571Z,165
2016-05-24T07:32:51.699Z,170
2016-05-24T07:33:51.718Z,195
2016-05-24T07:34:51.846Z,220
2016-05-24T07:35:51.582Z,195
2016-05-24T07:36:51.570Z,220
2016-05-24T07:37:51.588Z,190
2016-05-24T07:38:51.998Z,185
2016-05-24T07:39:51.562Z,190
2016-05-24T07:40:51.440Z,220
2016-05-24T07:41:51.395Z,225
2016-05-24T07:42:51.258Z,275
2016-05-24T07:43:51.448Z,330
2016-05-24T07:44:51.513Z,345
2016-05-24T07:45:51.438Z,370
2016-05-24T07:46:51.331Z,385
2016-05-24T07:47:51.302Z,410
2016-05-24T07:48:51.181Z,405
2016-05-24T07:49:51.152Z,390
2016-05-24T07:50:51.326Z,350
2016-05-24T07:51:51.314Z,320
2016-05-24T07:52:51.128Z,275
2016-05-24T07:53:51.053Z,215
2016-05-24T07:54:51.243Z,195
2016-05-24T07:55:51.074Z,205
2016-05-24T07:56:51.061Z,185
2016-05-24T07:57:50.908Z,175
2016-05-24T07:58:51.097Z,160
2016-05-24T07:59:50.975Z,175
2016-05-24T08:00:50.759Z,225
2016-05-24T08:01:50.684Z,250
2016-05-24T08:02:50.796Z,220
2016-05-24T08:03:50.721Z,185
2016-05-24T08:04:50.724Z,175
2016-05-24T08:05:50.632Z,170
2016-05-24T08:06:50.651Z,170
2016-05-24T08:07:50.700Z,175
2016-05-24T08:08:50.546Z,165
2016-05-24T08:09:50.502Z,185
2016-05-24T08:10:50.224Z,180
2016-05-24T08:11:50.554Z,210
2016-05-24T08:12:50.135Z,205
2016-05-24T08:13:50.451Z,180
2016-05-24T08:14:50.515Z,150
2016-05-24T08:15:50.722Z,110
2016-05-24T08:16:50.178Z,110
2016-05-24T08:17:50.274Z,90
2016-05-24T08:19:04.480Z,90
2016-05-24T08:19:50.263Z,90
2016-05-24T08:20:50.172Z,100
2016-05-24T08:21:50.160Z,105
2016-05-24T08:22:50.178Z,110
2016-05-24T08:23:49.915Z,100
2016-05-24T08:24:50.215Z,105
2016-05-24T08:25:50.014Z,130
2016-05-24T08:26:50.032Z,95
2016-05-24T08:27:49.957Z,85
2016-05-24T08:28:49.944Z,105
2016-05-24T08:29:49.916Z,130
2016-05-24T08:30:50.527Z,100
2016-05-24T08:31:49.624Z,105
2016-05-24T08:32:49.689Z,100
2016-05-24T08:33:49.785Z,90
2016-05-24T08:34:49.679Z,95
2016-05-24T08:35:49.729Z,100
2016-05-24T08:36:49.560Z,90
2016-05-24T08:37:49.640Z,95
2016-05-24T08:38:49.643Z,105
2016-05-24T08:39:49.614Z,110
2016-05-24T08:40:49.445Z,120
2016-05-24T08:41:49.510Z,120
2016-05-24T08:42:49.591Z,125
2016-05-24T08:43:49.313Z,120
2016-05-24T08:44:49.456Z,115
2016-05-24T08:45:49.599Z,105
2016-05-24T08:46:49.211Z,90
2016-05-24T08:47:49.573Z,70
2016-05-24T08:48:49.403Z,70
2016-05-24T08:49:49.109Z,75
2016-05-24T08:50:49.238Z,90
2016-05-24T08:51:49.100Z,95
2016-05-24T08:52:49.164Z,95
2016-05-24T08:53:49.120Z,90
2016-05-24T08:54:49.092Z,85
2016-05-24T08:55:48.954Z,95
2016-05-24T08:56:49.067Z,90
2016-05-24T08:57:49.006Z,80
2016-05-24T08:58:49.025Z,100
2016-05-24T08:59:48.840Z,105
2016-05-24T09:00:53.327Z,110
2016-05-24T09:01:48.892Z,110
2016-05-24T09:02:48.707Z,110
2016-05-24T09:03:48.836Z,90
2016-05-24T09:04:48.791Z,90
2016-05-24T09:05:48.793Z,105
2016-05-24T09:06:48.593Z,95
2016-05-24T09:07:48.377Z,100
2016-05-24T09:08:48.661Z,110
2016-05-24T09:09:48.867Z,115
2016-05-24T09:10:51.432Z,115
2016-05-24T09:11:48.529Z,115
2016-05-24T09:12:48.532Z,120
2016-05-24T09:13:48.362Z,125
2016-05-24T09:14:48.459Z,130
2016-05-24T09:15:52.196Z,125
2016-05-24T09:16:48.401Z,115
2016-05-24T09:17:48.373Z,120
2016-05-24T09:18:48.453Z,120
2016-05-24T09:19:48.581Z,130
2016-05-24T09:20:49.037Z,120
2016-05-24T09:21:48.884Z,105
2016-05-24T09:22:48.058Z,105
2016-05-24T09:23:48.451Z,115
2016-05-24T09:24:48.173Z,120
2016-05-24T09:26:02.598Z,125
2016-05-24T09:27:48.055Z,130
2016-05-24T09:28:48.012Z,130
2016-05-24T09:29:48.139Z,125
2016-05-24T09:30:50.080Z,130
2016-05-24T09:31:47.911Z,130
2016-05-24T09:32:48.147Z,130
2016-05-24T09:34:01.822Z,115
2016-05-24T09:34:47.856Z,105
2016-05-24T09:35:49.296Z,115
2016-05-24T09:36:48.079Z,115
2016-05-24T09:37:47.802Z,120
2016-05-24T09:38:47.898Z,120
2016-05-24T09:39:47.541Z,130
2016-05-24T09:40:47.622Z,130
2016-05-24T09:41:47.609Z,130
2016-05-24T09:42:47.846Z,125
2016-05-24T09:43:47.584Z,120
2016-05-24T09:44:47.507Z,130
2016-05-24T09:45:50.698Z,125
2016-05-24T09:46:47.653Z,120
2016-05-24T09:47:47.220Z,120
2016-05-24T09:48:47.691Z,120
2016-05-24T09:49:47.364Z,110
2016-05-24T09:50:47.415Z,110
2016-05-24T09:51:47.323Z,115
2016-05-24T09:53:01.686Z,120
2016-05-24T09:53:47.329Z,125
2016-05-24T09:54:47.019Z,130
2016-05-24T09:55:47.147Z,130
2016-05-24T09:56:47.212Z,130
2016-05-24T09:57:47.089Z,120
2016-05-24T09:58:47.045Z,115
2016-05-24T10:00:01.377Z,110
2016-05-24T10:00:47.848Z,110
2016-05-24T10:01:46.850Z,115
2016-05-24T10:02:46.916Z,115
2016-05-24T10:04:01.013Z,115
2016-05-24T10:04:46.796Z,125
2016-05-24T10:05:46.985Z,140
2016-05-24T10:06:46.830Z,155
2016-05-24T10:07:46.809Z,165
2016-05-24T10:08:46.801Z,180
2016-05-24T10:10:46.476Z,215
2016-05-24T10:11:46.757Z,230
2016-05-24T10:12:46.737Z,230
2016-05-24T10:13:46.623Z,235
2016-05-24T10:14:46.883Z,235
2016-05-24T10:15:46.363Z,245
2016-05-24T10:16:46.636Z,235
2016-05-24T10:17:46.705Z,230
2016-05-24T10:18:46.694Z,225
2016-05-24T10:19:46.590Z,225
2016-05-24T10:20:46.658Z,230
2016-05-24T10:21:46.350Z,245
2016-05-24T10:22:46.307Z,275
2016-05-24T10:23:46.420Z,295
2016-05-24T10:24:46.392Z,285
2016-05-24T10:25:46.411Z,265
2016-05-24T10:26:47.134Z,270
2016-05-24T10:27:46.184Z,285
2016-05-24T10:28:46.265Z,280
2016-05-24T10:29:46.299Z,275
2016-05-24T10:30:46.131Z,275
2016-05-24T10:31:47.102Z,280
2016-05-24T10:32:46.183Z,295
2016-05-24T10:33:46.123Z,290
2016-05-24T10:34:45.954Z,310
2016-05-24T10:35:45.753Z,335
2016-05-24T10:36:48.725Z,335
2016-05-24T10:37:46.025Z,335
2016-05-24T10:38:45.965Z,330
2016-05-24T10:39:45.795Z,330
2016-05-24T10:40:45.908Z,340
2016-05-24T10:41:45.739Z,355
2016-05-24T10:42:45.881Z,370
2016-05-24T10:43:45.728Z,375
2016-05-24T10:44:45.778Z,385
2016-05-24T10:45:45.858Z,390
2016-05-24T10:46:45.830Z,380
2016-05-24T10:47:45.708Z,380
2016-05-24T10:48:45.664Z,380
2016-05-24T10:49:45.541Z,375
2016-05-24T10:50:45.606Z,370
2016-05-24T10:51:47.563Z,375
2016-05-24T10:52:46.236Z,380
2016-05-24T10:53:46.318Z,380
2016-05-24T10:54:46.351Z,380
2016-05-24T10:55:45.463Z,385
2016-05-24T10:56:47.591Z,385
2016-05-24T10:57:46.047Z,385
2016-05-24T10:58:46.174Z,385
2016-05-24T10:59:46.177Z,380
2016-05-24T11:00:45.601Z,370
2016-05-24T11:01:46.933Z,360
2016-05-24T11:02:46.076Z,350
2016-05-24T11:03:45.876Z,345
2016-05-24T11:04:46.004Z,345
2016-05-24T11:05:45.646Z,335
2016-05-24T11:06:46.228Z,325
2016-05-24T11:07:46.012Z,315
2016-05-24T11:08:45.951Z,305
2016-05-24T11:09:45.845Z,310
2016-05-24T11:10:45.848Z,300
2016-05-24T11:11:45.834Z,290
2016-05-24T11:12:45.759Z,285
2016-05-24T11:13:45.886Z,260
2016-05-24T11:14:45.718Z,245
2016-05-24T11:15:45.048Z,255
2016-05-24T11:16:46.707Z,275
2016-05-24T11:17:45.664Z,275
2016-05-24T11:18:45.572Z,275
2016-05-24T11:19:45.544Z,275
2016-05-24T11:20:45.469Z,285
2016-05-24T11:21:45.518Z,300
2016-05-24T11:22:44.864Z,300
2016-05-24T11:23:45.477Z,305
2016-05-24T11:24:44.776Z,315
2016-05-24T11:25:45.263Z,325
2016-05-24T11:26:45.203Z,325
2016-05-24T11:27:45.362Z,320
2016-05-24T11:28:45.287Z,320
2016-05-24T11:29:45.274Z,315
2016-05-24T11:30:46.183Z,320
2016-05-24T11:31:45.326Z,320
2016-05-24T11:32:44.594Z,325
2016-05-24T11:33:45.144Z,340
2016-05-24T11:34:45.116Z,370
2016-05-24T11:35:45.087Z,385
2016-05-24T11:36:45.073Z,405
2016-05-24T11:37:44.264Z,400
2016-05-24T11:38:44.876Z,410
2016-05-24T11:39:45.098Z,395
2016-05-24T11:40:44.944Z,385
2016-05-24T11:41:44.915Z,350
2016-05-24T11:42:44.887Z,350
2016-05-24T11:43:44.873Z,355
2016-05-24T11:44:44.830Z,345
2016-05-24T11:45:45.691Z,330
2016-05-24T11:46:44.788Z,320
2016-05-24T11:47:44.759Z,325
2016-05-24T11:48:44.716Z,325
2016-05-24T11:49:44.687Z,325
2016-05-24T11:50:44.659Z,325
2016-05-24T11:51:44.769Z,325
2016-05-24T11:52:44.445Z,320
2016-05-24T11:53:44.417Z,320
2016-05-24T11:54:44.544Z,315
2016-05-24T11:55:44.360Z,310
2016-05-24T11:56:43.987Z,305
2016-05-24T11:57:44.443Z,305
2016-05-24T11:58:44.430Z,305
2016-05-24T11:59:44.260Z,295
2016-05-24T12:00:44.076Z,290
2016-05-24T12:01:44.360Z,285
2016-05-24T12:02:43.924Z,280
2016-05-24T12:03:43.693Z,270
2016-05-24T12:04:44.259Z,255
2016-05-24T12:05:44.340Z,240
2016-05-24T12:06:43.264Z,230
2016-05-24T12:07:44.032Z,230
2016-05-24T12:08:44.004Z,230
2016-05-24T12:09:44.023Z,225
2016-05-24T12:10:44.196Z,220
2016-05-24T12:11:43.934Z,220
2016-05-24T12:12:43.920Z,220
2016-05-24T12:13:43.970Z,220
2016-05-24T12:14:43.223Z,225
2016-05-24T12:15:44.366Z,225
2016-05-24T12:16:43.947Z,225
2016-05-24T12:17:43.840Z,230
2016-05-24T12:18:43.093Z,230
2016-05-24T12:19:43.189Z,230
2016-05-24T12:20:43.988Z,240
2016-05-24T12:21:43.289Z,245
2016-05-24T12:22:43.744Z,250
2016-05-24T12:23:43.810Z,255
2016-05-24T12:24:43.062Z,255
2016-05-24T12:25:43.847Z,245
2016-05-24T12:26:43.005Z,240
2016-05-24T12:27:43.679Z,240
2016-05-24T12:28:43.510Z,250
2016-05-24T12:29:43.638Z,260
2016-05-24T12:30:43.797Z,275
2016-05-24T12:31:43.472Z,300
2016-05-24T12:32:43.552Z,315
2016-05-24T12:33:42.649Z,320
2016-05-24T12:34:42.761Z,320
2016-05-24T12:35:42.843Z,320
2016-05-24T12:36:43.173Z,325
2016-05-24T12:37:43.332Z,325
2016-05-24T12:38:43.021Z,315
2016-05-24T12:39:43.243Z,305
2016-05-24T12:40:43.231Z,295
2016-05-24T12:41:43.076Z,280
2016-05-24T12:42:43.017Z,270
2016-05-24T12:43:43.081Z,260
2016-05-24T12:44:42.491Z,255
2016-05-24T12:45:42.995Z,250
2016-05-24T12:46:42.418Z,240
2016-05-24T12:47:42.077Z,230
2016-05-24T12:48:42.877Z,225
2016-05-24T12:49:43.583Z,230
2016-05-24T12:50:42.945Z,235
2016-05-24T12:51:42.901Z,245
2016-05-24T12:52:42.872Z,245
2016-05-24T12:53:42.547Z,250
2016-05-24T12:54:43.097Z,250
2016-05-24T12:55:42.786Z,255
2016-05-24T12:56:42.117Z,260
2016-05-24T12:57:42.744Z,255
2016-05-24T12:58:42.575Z,255
2016-05-24T12:59:42.657Z,255
2016-05-24T13:00:43.112Z,250
2016-05-24T13:01:42.646Z,245
2016-05-24T13:02:42.461Z,245
2016-05-24T13:03:41.885Z,250
2016-05-24T13:04:42.529Z,260
2016-05-24T13:05:42.501Z,260
2016-05-24T13:06:42.160Z,260
2016-05-24T13:07:41.803Z,270
2016-05-24T13:08:42.415Z,275
2016-05-24T13:09:42.292Z,275
2016-05-24T13:10:41.749Z,275
2016-05-24T13:11:42.314Z,265
2016-05-24T13:12:42.363Z,260
2016-05-24T13:13:42.288Z,260
2016-05-24T13:14:42.243Z,255
2016-05-24T13:15:42.215Z,255
2016-05-24T13:16:41.405Z,250
2016-05-24T13:17:42.001Z,255
2016-05-24T13:18:42.208Z,265
2016-05-24T13:19:42.148Z,275
2016-05-24T13:20:41.916Z,290
2016-05-24T13:21:42.028Z,285
2016-05-24T13:22:41.468Z,285
2016-05-24T13:23:42.127Z,285
2016-05-24T13:24:41.958Z,290
2016-05-24T13:25:41.757Z,295
2016-05-24T13:26:41.870Z,295
2016-05-24T13:27:41.858Z,295
2016-05-24T13:28:41.188Z,295
2016-05-24T13:29:41.800Z,295
2016-05-24T13:30:42.458Z,305
2016-05-24T13:31:41.727Z,300
2016-05-24T13:32:41.714Z,310
2016-05-24T13:33:41.154Z,315
2016-05-24T13:34:41.672Z,325
2016-05-24T13:35:41.535Z,340
2016-05-24T13:36:41.584Z,355
2016-05-24T13:37:40.930Z,370
2016-05-24T13:38:41.527Z,370
2016-05-24T13:39:41.623Z,365
2016-05-24T13:40:41.532Z,360
2016-05-24T13:41:41.473Z,350
2016-05-24T13:42:41.428Z,350
2016-05-24T13:43:41.400Z,355
2016-05-24T13:44:41.495Z,365
2016-05-24T13:45:42.186Z,380
2016-05-24T13:46:41.315Z,390
2016-05-24T13:47:41.317Z,405
2016-05-24T13:48:40.475Z,415
2016-05-24T13:49:41.228Z,415
2016-05-24T13:50:41.200Z,420
2016-05-24T13:51:41.217Z,425
2016-05-24T13:52:40.533Z,430
2016-05-24T13:53:41.223Z,420
2016-05-24T13:54:40.961Z,425
2016-05-24T13:55:40.900Z,430
2016-05-24T13:56:41.060Z,435
2016-05-24T13:57:41.046Z,435
2016-05-24T13:58:40.971Z,435
2016-05-24T13:59:40.646Z,435
2016-05-24T14:00:41.383Z,445
2016-05-24T14:01:40.902Z,445
2016-05-24T14:02:40.560Z,445
2016-05-24T14:03:40.843Z,440
2016-05-24T14:04:40.675Z,435
2016-05-24T14:05:40.678Z,430
2016-05-24T14:06:40.758Z,425
2016-05-24T14:07:40.730Z,420
2016-05-24T14:08:40.701Z,410
2016-05-24T14:09:40.688Z,395
2016-05-24T14:10:40.504Z,385